Time;durP1;ratioP1;P1;durP2;ratioP2;P2;SDS_P1;SDS_P2;PMS_P1;PMS_P2;Temp;Humidity;BMP_temperature;BMP_pressure;BME280_temperature;BME280_humidity;BME280_pressure;Samples;Min_cycle;Max_cycle;Signal;HPM_P1;HPM_P2
2023/12/23 00:02:23;;;;;;;4.47;1.65;;;;;;;;;;4957531;29;20501;-80
2023/12/23 00:04:53;;;;;;;3.13;1.30;;;;;;;;;;4957907;29;20046;-78
2023/12/23 00:07:23;;;;;;;7.30;1.45;;;;;;;;;;4958444;29;20478;-77
2023/12/23 00:09:54;;;;;;;2.13;1.02;;;;;;;;;;4957256;29;20047;-80
2023/12/23 00:12:24;;;;;;;4.78;1.42;;;;;;;;;;4957113;29;20043;-81
2023/12/23 00:14:54;;;;;;;2.00;0.82;;;;;;;;;;4956811;29;20044;-80
2023/12/23 00:17:24;;;;;;;5.18;1.08;;;;;;;;;;4956924;29;20054;-79
2023/12/23 00:19:56;;;;;;;3.15;1.35;;;;;;;;;;4956621;29;20043;-79
2023/12/23 00:22:27;;;;;;;5.15;1.45;;;;;;;;;;4938811;29;20394;-79
2023/12/23 00:24:57;;;;;;;3.42;0.80;;;;;;;;;;4939924;29;20058;-79
2023/12/23 00:27:27;;;;;;;5.07;1.08;;;;;;;;;;4939710;29;20047;-79
2023/12/23 00:29:59;;;;;;;1.80;0.52;;;;;;;;;;4956755;29;20039;-79
2023/12/23 00:32:55;;;;;;;3.03;0.85;;;;;;;;;;4939737;29;20059;-80
2023/12/23 00:35:26;;;;;;;1.83;0.93;;;;;;;;;;4914779;29;20059;-78
2023/12/23 00:37:56;;;;;;;3.05;0.90;;;;;;;;;;4942459;29;20055;-79
2023/12/23 00:40:26;;;;;;;3.47;0.57;;;;;;;;;;4936790;29;20051;-80
2023/12/23 00:42:56;;;;;;;2.88;0.80;;;;;;;;;;4936298;29;20058;-80
2023/12/23 00:45:27;;;;;;;2.20;0.70;;;;;;;;;;4935984;29;20055;-80
2023/12/23 00:47:57;;;;;;;2.97;0.50;;;;;;;;;;4935826;29;20077;-79
2023/12/23 00:50:29;;;;;;;1.65;0.50;;;;;;;;;;4948325;29;20051;-78
2023/12/23 00:53:02;;;;;;;2.03;0.77;;;;;;;;;;4953811;29;20043;-79
2023/12/23 00:55:32;;;;;;;1.17;0.50;;;;;;;;;;4953730;29;20047;-80
2023/12/23 00:58:02;;;;;;;4.00;0.90;;;;;;;;;;4953402;28;20059;-79
2023/12/23 01:00:32;;;;;;;1.85;0.73;;;;;;;;;;4953004;29;20059;-78
2023/12/23 01:03:03;;;;;;;2.70;0.70;;;;;;;;;;4954092;29;20043;-81
2023/12/23 01:05:33;;;;;;;3.10;1.30;;;;;;;;;;4953531;29;20056;-80
2023/12/23 01:08:05;;;;;;;1.73;0.70;;;;;;;;;;4936032;29;20081;-80
2023/12/23 01:10:36;;;;;;;4.53;1.17;;;;;;;;;;4935590;29;20054;-79
2023/12/23 01:13:06;;;;;;;4.25;1.08;;;;;;;;;;4953916;29;20035;-79
2023/12/23 01:15:35;;;;;;;2.22;0.73;;;;;;;;;;4935478;29;20414;-79
2023/12/23 01:18:07;;;;;;;2.50;0.50;;;;;;;;;;4953685;29;20043;-80
2023/12/23 01:20:40;;;;;;;3.85;0.82;;;;;;;;;;4935465;29;20055;-78
2023/12/23 01:23:10;;;;;;;1.38;0.60;;;;;;;;;;4936933;29;20062;-79
2023/12/23 01:25:41;;;;;;;5.15;1.10;;;;;;;;;;4936561;29;20089;-81
2023/12/23 01:28:12;;;;;;;3.25;0.90;;;;;;;;;;4935523;29;20051;-78
2023/12/23 01:30:43;;;;;;;2.88;0.70;;;;;;;;;;4953036;28;20554;-79
2023/12/23 01:33:13;;;;;;;3.30;0.95;;;;;;;;;;4953089;29;20047;-77
2023/12/23 01:35:43;;;;;;;3.15;1.17;;;;;;;;;;4952902;28;20066;-78
2023/12/23 01:38:14;;;;;;;1.50;0.75;;;;;;;;;;4942385;29;20051;-79
2023/12/23 01:40:44;;;;;;;1.77;1.00;;;;;;;;;;4952746;28;21497;-80
2023/12/23 01:43:14;;;;;;;3.17;0.75;;;;;;;;;;4953282;29;20043;-79
2023/12/23 01:45:46;;;;;;;1.70;0.88;;;;;;;;;;4917695;29;20055;-80
2023/12/23 01:48:18;;;;;;;3.58;0.80;;;;;;;;;;4934816;29;20409;-79
2023/12/23 01:50:50;;;;;;;1.40;0.68;;;;;;;;;;4951543;28;20431;-79
2023/12/23 01:53:22;;;;;;;3.63;1.10;;;;;;;;;;4952566;29;20074;-79
2023/12/23 01:55:55;;;;;;;3.45;1.08;;;;;;;;;;4951396;29;20066;-79
2023/12/23 01:58:26;;;;;;;8.48;1.13;;;;;;;;;;4934169;29;20056;-78
2023/12/23 02:00:58;;;;;;;4.25;1.13;;;;;;;;;;4952507;29;20046;-79
2023/12/23 02:03:28;;;;;;;11.70;0.95;;;;;;;;;;4949799;29;20059;-79
2023/12/23 02:05:59;;;;;;;5.43;1.88;;;;;;;;;;4936010;29;20050;-79
2023/12/23 02:08:29;;;;;;;9.23;0.95;;;;;;;;;;4934674;29;20058;-79
2023/12/23 02:11:05;;;;;;;2.72;1.13;;;;;;;;;;4956239;29;20526;-78
2023/12/23 02:13:51;;;;;;;3.25;0.88;;;;;;;;;;4956862;29;20050;-78
2023/12/23 02:16:22;;;;;;;3.20;0.90;;;;;;;;;;4956907;29;20050;-78
2023/12/23 02:18:54;;;;;;;2.03;0.80;;;;;;;;;;4956773;29;20039;-78
2023/12/23 02:21:26;;;;;;;4.47;0.82;;;;;;;;;;4938570;29;20058;-78
2023/12/23 02:23:56;;;;;;;3.08;0.77;;;;;;;;;;4956625;29;20047;-78
2023/12/23 02:26:29;;;;;;;3.65;0.95;;;;;;;;;;4938931;29;20043;-79
2023/12/23 02:29:02;;;;;;;4.95;1.00;;;;;;;;;;4938356;29;20043;-79
2023/12/23 02:31:35;;;;;;;5.25;0.80;;;;;;;;;;4939415;29;20047;-79
2023/12/23 02:34:05;;;;;;;2.65;0.93;;;;;;;;;;4954471;29;20043;-79
2023/12/23 02:36:35;;;;;;;3.75;0.80;;;;;;;;;;4956620;29;20418;-80
2023/12/23 02:39:05;;;;;;;2.42;0.63;;;;;;;;;;4938573;29;20055;-80
2023/12/23 02:41:35;;;;;;;3.63;0.82;;;;;;;;;;4956273;29;20058;-78
2023/12/23 02:44:06;;;;;;;4.13;0.80;;;;;;;;;;4956153;29;20078;-78
2023/12/23 02:46:37;;;;;;;6.65;0.88;;;;;;;;;;4956147;29;20047;-80
2023/12/23 02:49:08;;;;;;;3.88;0.68;;;;;;;;;;4956325;29;20063;-79
2023/12/23 02:51:38;;;;;;;2.20;0.65;;;;;;;;;;4951137;29;20511;-79
2023/12/23 02:54:08;;;;;;;4.72;0.75;;;;;;;;;;4936589;28;20060;-79
2023/12/23 02:56:39;;;;;;;4.00;1.08;;;;;;;;;;4919799;29;20047;-79
2023/12/23 02:59:09;;;;;;;3.53;1.00;;;;;;;;;;4920306;29;20060;-79
2023/12/23 03:01:39;;;;;;;3.97;0.95;;;;;;;;;;4951390;29;20415;-81
2023/12/23 03:04:09;;;;;;;2.13;0.80;;;;;;;;;;4936864;28;20063;-80
2023/12/23 03:06:39;;;;;;;3.03;0.85;;;;;;;;;;4936413;29;20443;-79
2023/12/23 03:09:09;;;;;;;3.70;0.82;;;;;;;;;;4919323;29;20055;-79
2023/12/23 03:11:40;;;;;;;5.55;0.82;;;;;;;;;;4919181;29;20055;-79
2023/12/23 03:14:11;;;;;;;7.68;1.10;;;;;;;;;;4936761;28;20044;-80
2023/12/23 03:16:41;;;;;;;4.70;0.90;;;;;;;;;;4918642;29;20056;-79
2023/12/23 03:19:12;;;;;;;3.33;0.93;;;;;;;;;;4950452;28;20062;-79
2023/12/23 03:21:43;;;;;;;5.05;1.48;;;;;;;;;;4917744;29;20062;-79
2023/12/23 03:24:14;;;;;;;3.28;0.80;;;;;;;;;;4918598;29;20424;-80
2023/12/23 03:26:45;;;;;;;7.95;1.30;;;;;;;;;;4918271;29;20059;-78
2023/12/23 03:29:16;;;;;;;2.10;0.93;;;;;;;;;;4934639;29;20062;-80
2023/12/23 03:31:47;;;;;;;2.45;0.95;;;;;;;;;;4957847;29;20043;-79
2023/12/23 03:34:18;;;;;;;3.63;0.90;;;;;;;;;;4957488;29;20043;-78
2023/12/23 03:36:49;;;;;;;3.47;0.95;;;;;;;;;;4957565;29;20047;-79
2023/12/23 03:39:19;;;;;;;3.00;0.95;;;;;;;;;;4957893;29;20070;-79
2023/12/23 03:41:50;;;;;;;4.32;0.95;;;;;;;;;;4957485;29;20047;-80
2023/12/23 03:44:21;;;;;;;7.38;0.93;;;;;;;;;;4939650;29;20055;-79
2023/12/23 03:46:51;;;;;;;3.97;0.80;;;;;;;;;;4957770;29;20054;-80
2023/12/23 03:49:22;;;;;;;6.82;0.80;;;;;;;;;;4939332;29;20520;-79
2023/12/23 03:51:52;;;;;;;2.65;0.88;;;;;;;;;;4939550;29;20051;-78
2023/12/23 03:54:21;;;;;;;7.18;1.35;;;;;;;;;;4957182;28;20067;-79
2023/12/23 03:56:51;;;;;;;5.15;0.73;;;;;;;;;;4939362;29;20055;-79
2023/12/23 03:59:21;;;;;;;3.90;0.90;;;;;;;;;;4940701;29;20051;-79
2023/12/23 04:01:52;;;;;;;6.53;0.90;;;;;;;;;;4939672;29;20062;-79
2023/12/23 04:04:22;;;;;;;2.38;0.80;;;;;;;;;;4938740;29;20414;-80
2023/12/23 04:06:53;;;;;;;2.55;1.50;;;;;;;;;;4957036;29;20403;-78
2023/12/23 04:09:23;;;;;;;5.38;1.10;;;;;;;;;;4939111;29;20058;-80
2023/12/23 04:11:53;;;;;;;3.63;1.00;;;;;;;;;;4938898;29;20410;-78
2023/12/23 04:14:23;;;;;;;2.38;1.15;;;;;;;;;;4939136;29;20055;-79
2023/12/23 04:16:53;;;;;;;2.22;0.93;;;;;;;;;;4956697;29;20051;-79
2023/12/23 04:19:25;;;;;;;1.88;0.70;;;;;;;;;;4938651;29;20052;-79
2023/12/23 04:21:57;;;;;;;2.40;1.08;;;;;;;;;;4939179;29;20047;-78
2023/12/23 04:24:27;;;;;;;6.85;0.90;;;;;;;;;;4938935;29;20051;-79
2023/12/23 04:26:57;;;;;;;4.63;0.77;;;;;;;;;;4939223;29;20043;-79
2023/12/23 04:29:29;;;;;;;3.65;0.82;;;;;;;;;;4924088;29;20055;-79
2023/12/23 04:32:00;;;;;;;1.55;0.70;;;;;;;;;;4955006;28;20051;-79
2023/12/23 04:34:31;;;;;;;2.35;1.00;;;;;;;;;;4938359;29;20055;-80
2023/12/23 04:37:00;;;;;;;2.47;1.35;;;;;;;;;;4938919;29;20214;-78
2023/12/23 04:39:31;;;;;;;2.10;0.70;;;;;;;;;;4938183;29;20051;-79
2023/12/23 04:42:02;;;;;;;;;;;;;;;;;;4938853;29;20051;-79
2023/12/23 04:44:33;;;;;;;1.45;0.70;;;;;;;;;;4956765;29;19923;-79
2023/12/23 04:47:03;;;;;;;4.55;0.85;;;;;;;;;;4939709;29;20055;-78
2023/12/23 04:49:34;;;;;;;3.40;0.80;;;;;;;;;;4947291;29;20058;-79
2023/12/23 04:52:05;;;;;;;2.85;0.85;;;;;;;;;;4960837;29;20058;-79
2023/12/23 04:54:35;;;;;;;4.75;1.52;;;;;;;;;;4966775;29;20133;-78
2023/12/23 04:57:05;;;;;;;5.72;0.88;;;;;;;;;;4955390;28;20051;-79
2023/12/23 04:59:35;;;;;;;3.53;1.02;;;;;;;;;;4962324;28;20038;-80
2023/12/23 05:02:05;;;;;;;4.35;0.70;;;;;;;;;;4980055;28;20027;-81
2023/12/23 05:04:35;;;;;;;4.15;0.77;;;;;;;;;;4962896;28;20031;-80
2023/12/23 05:07:07;;;;;;;4.57;0.93;;;;;;;;;;4962900;28;20039;-79
2023/12/23 05:09:38;;;;;;;3.13;1.00;;;;;;;;;;4939903;29;20074;-79
2023/12/23 05:12:09;;;;;;;4.72;0.60;;;;;;;;;;4957062;29;20051;-79
2023/12/23 05:14:39;;;;;;;3.58;0.70;;;;;;;;;;4956309;29;20051;-77
2023/12/23 05:17:10;;;;;;;3.45;1.05;;;;;;;;;;4954224;29;20058;-79
2023/12/23 05:19:41;;;;;;;1.95;0.70;;;;;;;;;;4956878;29;20062;-79
2023/12/23 05:22:12;;;;;;;2.45;0.90;;;;;;;;;;4956955;29;20062;-78
2023/12/23 05:24:43;;;;;;;2.35;1.00;;;;;;;;;;4938008;29;20410;-79
2023/12/23 05:27:14;;;;;;;4.75;0.90;;;;;;;;;;4937559;29;20078;-79
2023/12/23 05:29:44;;;;;;;4.68;1.23;;;;;;;;;;4955702;29;20050;-79
2023/12/23 05:32:14;;;;;;;2.33;0.73;;;;;;;;;;4954267;29;20418;-79
2023/12/23 05:34:46;;;;;;;1.13;0.60;;;;;;;;;;4955788;29;20055;-79
2023/12/23 05:37:16;;;;;;;3.10;0.75;;;;;;;;;;4955615;29;20050;-78
2023/12/23 05:39:48;;;;;;;3.03;0.77;;;;;;;;;;4938828;29;20486;-78
2023/12/23 05:42:18;;;;;;;3.25;1.10;;;;;;;;;;4956373;29;20352;-80
2023/12/23 05:44:49;;;;;;;2.92;0.60;;;;;;;;;;4937936;29;20072;-79
2023/12/23 05:47:19;;;;;;;5.55;0.90;;;;;;;;;;4955558;29;20499;-80
2023/12/23 05:49:49;;;;;;;4.13;0.80;;;;;;;;;;4955749;29;20057;-79
2023/12/23 05:52:19;;;;;;;5.85;0.80;;;;;;;;;;4953058;29;20054;-78
2023/12/23 05:54:49;;;;;;;5.75;0.98;;;;;;;;;;4955430;29;20055;-79
2023/12/23 05:57:19;;;;;;;2.58;0.80;;;;;;;;;;4955239;29;20070;-78
2023/12/23 05:59:50;;;;;;;1.27;0.70;;;;;;;;;;4955104;29;20050;-79
2023/12/23 06:02:19;;;;;;;1.73;0.90;;;;;;;;;;4954840;29;20051;-79
2023/12/23 06:04:50;;;;;;;5.25;1.20;;;;;;;;;;4937253;29;20051;-79
2023/12/23 06:07:20;;;;;;;4.85;1.02;;;;;;;;;;4938548;29;20051;-79
2023/12/23 06:09:49;;;;;;;3.55;0.90;;;;;;;;;;4954862;29;20043;-79
2023/12/23 06:12:20;;;;;;;4.80;0.80;;;;;;;;;;4938377;29;20051;-79
2023/12/23 06:14:54;;;;;;;3.40;0.70;;;;;;;;;;4956018;29;20051;-79
2023/12/23 06:17:25;;;;;;;2.88;0.90;;;;;;;;;;4954887;29;20054;-78
2023/12/23 06:19:55;;;;;;;3.47;1.00;;;;;;;;;;4955706;29;20047;-80
2023/12/23 06:22:25;;;;;;;3.85;0.80;;;;;;;;;;4955240;29;20058;-80
2023/12/23 06:24:56;;;;;;;3.30;1.00;;;;;;;;;;4955217;29;20047;-79
2023/12/23 06:27:26;;;;;;;3.42;0.90;;;;;;;;;;4936638;29;20058;-79
2023/12/23 06:29:56;;;;;;;2.42;0.85;;;;;;;;;;4954818;29;20051;-80
2023/12/23 06:32:26;;;;;;;2.63;0.77;;;;;;;;;;4954653;29;20059;-79
2023/12/23 06:34:56;;;;;;;4.30;1.13;;;;;;;;;;4955174;29;20059;-80
2023/12/23 06:37:27;;;;;;;3.25;0.77;;;;;;;;;;4954657;29;20047;-78
2023/12/23 06:39:59;;;;;;;2.30;1.20;;;;;;;;;;4954625;29;20039;-78
2023/12/23 06:42:30;;;;;;;4.97;1.30;;;;;;;;;;4938005;29;20047;-78
2023/12/23 06:44:59;;;;;;;6.32;1.00;;;;;;;;;;4955316;29;20047;-78
2023/12/23 06:47:29;;;;;;;4.68;1.17;;;;;;;;;;4937978;29;20051;-80
2023/12/23 06:49:59;;;;;;;4.18;0.80;;;;;;;;;;4954824;29;20047;-79
2023/12/23 06:52:30;;;;;;;3.92;0.70;;;;;;;;;;4954933;29;20051;-79
2023/12/23 06:55:00;;;;;;;6.95;0.82;;;;;;;;;;4954515;28;20047;-79
2023/12/23 06:57:30;;;;;;;4.70;0.95;;;;;;;;;;4941208;29;20517;-79
2023/12/23 07:00:01;;;;;;;3.22;1.10;;;;;;;;;;4958547;29;20054;-78
2023/12/23 07:02:31;;;;;;;1.80;0.68;;;;;;;;;;4957840;29;20506;-79
2023/12/23 07:05:01;;;;;;;2.53;0.60;;;;;;;;;;4958143;29;20501;-78
2023/12/23 07:07:31;;;;;;;3.55;1.00;;;;;;;;;;4941506;29;20058;-79
2023/12/23 07:10:01;;;;;;;2.78;0.88;;;;;;;;;;4958063;29;20051;-79
2023/12/23 07:12:35;;;;;;;4.55;1.20;;;;;;;;;;4957840;29;20062;-79
2023/12/23 07:15:08;;;;;;;3.97;0.65;;;;;;;;;;4955554;29;20525;-78
2023/12/23 07:17:39;;;;;;;4.53;0.82;;;;;;;;;;4957938;29;20055;-79
2023/12/23 07:20:10;;;;;;;5.93;1.10;;;;;;;;;;4940505;29;20054;-79
2023/12/23 07:22:41;;;;;;;4.25;1.05;;;;;;;;;;4957738;29;20051;-78
2023/12/23 07:25:11;;;;;;;3.17;0.60;;;;;;;;;;4941009;29;20051;-79
2023/12/23 07:27:41;;;;;;;4.18;0.90;;;;;;;;;;4958235;29;20051;-79
2023/12/23 07:30:11;;;;;;;2.05;0.70;;;;;;;;;;4957418;29;20050;-79
2023/12/23 07:32:43;;;;;;;2.60;0.70;;;;;;;;;;4957565;29;20394;-78
2023/12/23 07:35:13;;;;;;;5.32;0.88;;;;;;;;;;4957352;29;20481;-80
2023/12/23 07:37:45;;;;;;;4.32;1.00;;;;;;;;;;4940894;29;20050;-79
2023/12/23 07:40:16;;;;;;;5.30;0.77;;;;;;;;;;4957050;29;20051;-79
2023/12/23 07:42:46;;;;;;;4.38;1.10;;;;;;;;;;4957412;29;20043;-78
2023/12/23 07:45:16;;;;;;;3.08;0.93;;;;;;;;;;4957995;29;20360;-80
2023/12/23 07:47:47;;;;;;;3.13;1.10;;;;;;;;;;4957477;29;20047;-79
2023/12/23 07:50:19;;;;;;;5.38;1.10;;;;;;;;;;4957706;29;20051;-79
2023/12/23 07:52:49;;;;;;;4.35;1.00;;;;;;;;;;4957358;29;20054;-80
2023/12/23 07:55:20;;;;;;;2.50;1.05;;;;;;;;;;4940343;29;20062;-79
2023/12/23 07:57:50;;;;;;;2.53;1.05;;;;;;;;;;4957795;29;20467;-79
2023/12/23 08:00:21;;;;;;;1.80;0.68;;;;;;;;;;4954436;28;20059;-79
2023/12/23 08:02:51;;;;;;;2.40;0.68;;;;;;;;;;4938976;29;20055;-79
2023/12/23 08:05:21;;;;;;;4.47;1.13;;;;;;;;;;4939647;29;20062;-78
2023/12/23 08:07:51;;;;;;;3.67;0.90;;;;;;;;;;4956326;28;20062;-79
2023/12/23 08:10:22;;;;;;;2.58;0.75;;;;;;;;;;4938780;29;20430;-78
2023/12/23 08:12:52;;;;;;;4.00;0.93;;;;;;;;;;4956232;29;20050;-77
2023/12/23 08:15:23;;;;;;;5.70;0.95;;;;;;;;;;4938813;29;20398;-80
2023/12/23 08:17:53;;;;;;;10.63;1.27;;;;;;;;;;4956925;29;20043;-79
2023/12/23 08:20:23;;;;;;;2.78;0.85;;;;;;;;;;4956763;29;20047;-79
2023/12/23 08:22:53;;;;;;;5.10;0.60;;;;;;;;;;4956436;29;20060;-80
2023/12/23 08:25:23;;;;;;;2.97;0.80;;;;;;;;;;4956114;29;20039;-78
2023/12/23 08:27:53;;;;;;;1.02;0.50;;;;;;;;;;4956018;29;20478;-79
2023/12/23 08:30:24;;;;;;;2.78;0.50;;;;;;;;;;4956636;29;20063;-79
2023/12/23 08:32:54;;;;;;;1.73;0.65;;;;;;;;;;4956377;29;20134;-78
2023/12/23 08:35:27;;;;;;;1.30;0.35;;;;;;;;;;4957009;29;20047;-78
2023/12/23 08:37:58;;;;;;;2.08;0.50;;;;;;;;;;4956888;29;20398;-79
2023/12/23 08:40:29;;;;;;;1.45;0.95;;;;;;;;;;4939649;29;20051;-79
2023/12/23 08:42:59;;;;;;;0.85;0.20;;;;;;;;;;4954816;29;20047;-79
2023/12/23 08:45:30;;;;;;;4.05;0.40;;;;;;;;;;4956032;29;20054;-79
2023/12/23 08:48:00;;;;;;;1.05;0.60;;;;;;;;;;4955968;29;20048;-78
2023/12/23 08:50:30;;;;;;;3.42;0.40;;;;;;;;;;4955707;29;20058;-79
2023/12/23 08:53:02;;;;;;;0.82;0.40;;;;;;;;;;4955990;29;20046;-78
2023/12/23 08:55:33;;;;;;;2.05;0.40;;;;;;;;;;4956132;29;20068;-79
2023/12/23 08:58:04;;;;;;;0.95;0.30;;;;;;;;;;4956003;29;20050;-80
2023/12/23 09:00:35;;;;;;;0.55;0.22;;;;;;;;;;4938035;29;20406;-79
2023/12/23 09:03:06;;;;;;;3.03;0.38;;;;;;;;;;4956085;29;20391;-79
2023/12/23 09:05:37;;;;;;;1.75;0.35;;;;;;;;;;4955787;29;20054;-81
2023/12/23 09:08:07;;;;;;;2.25;0.30;;;;;;;;;;4955105;28;20055;-79
2023/12/23 09:10:37;;;;;;;0.85;0.28;;;;;;;;;;4955556;29;20406;-80
2023/12/23 09:13:09;;;;;;;0.40;0.20;;;;;;;;;;4955151;29;20058;-82
2023/12/23 09:15:39;;;;;;;0.55;0.20;;;;;;;;;;4954941;29;20050;-80
2023/12/23 09:18:09;;;;;;;0.35;0.20;;;;;;;;;;4938446;28;20047;-81
2023/12/23 09:20:40;;;;;;;0.90;0.30;;;;;;;;;;4955517;29;20043;-81
2023/12/23 09:23:09;;;;;;;2.83;0.20;;;;;;;;;;4955431;29;20062;-81
2023/12/23 09:25:40;;;;;;;1.90;0.40;;;;;;;;;;4938513;29;20051;-81
2023/12/23 09:28:10;;;;;;;2.30;0.70;;;;;;;;;;4937146;29;20047;-80
2023/12/23 09:30:41;;;;;;;3.10;0.80;;;;;;;;;;4935915;29;20059;-79
2023/12/23 09:33:12;;;;;;;1.60;0.45;;;;;;;;;;4920534;29;20379;-81
2023/12/23 09:35:42;;;;;;;1.38;0.60;;;;;;;;;;4946171;29;20047;-80
2023/12/23 09:38:12;;;;;;;1.40;0.30;;;;;;;;;;4955120;29;20058;-80
2023/12/23 09:40:44;;;;;;;2.35;0.50;;;;;;;;;;4938302;29;20395;-82
2023/12/23 09:43:16;;;;;;;1.60;0.32;;;;;;;;;;4955483;29;20062;-81
2023/12/23 09:45:47;;;;;;;1.80;0.40;;;;;;;;;;4955426;29;20055;-81
2023/12/23 09:48:19;;;;;;;0.60;0.30;;;;;;;;;;4938652;29;20518;-80
2023/12/23 09:50:50;;;;;;;1.55;0.30;;;;;;;;;;4955341;29;20050;-80
2023/12/23 09:53:22;;;;;;;2.35;0.50;;;;;;;;;;4938667;29;20062;-80
2023/12/23 09:55:52;;;;;;;0.60;0.30;;;;;;;;;;4955438;28;20051;-80
2023/12/23 09:58:24;;;;;;;1.98;0.30;;;;;;;;;;4955429;29;20046;-80
2023/12/23 10:00:55;;;;;;;1.15;0.45;;;;;;;;;;4937602;29;20050;-79
2023/12/23 10:03:28;;;;;;;0.70;0.38;;;;;;;;;;4954322;29;20070;-79
2023/12/23 10:06:01;;;;;;;0.95;0.30;;;;;;;;;;4935665;29;20070;-79
2023/12/23 10:08:32;;;;;;;1.38;0.20;;;;;;;;;;4953147;28;20054;-80
2023/12/23 10:11:03;;;;;;;2.15;0.50;;;;;;;;;;4954591;29;20046;-80
2023/12/23 10:13:34;;;;;;;1.80;0.45;;;;;;;;;;4954820;29;20494;-80
2023/12/23 10:16:04;;;;;;;2.38;0.40;;;;;;;;;;4938363;29;20047;-80
2023/12/23 10:18:34;;;;;;;1.65;0.47;;;;;;;;;;4954895;29;20430;-81
2023/12/23 10:21:05;;;;;;;1.42;0.43;;;;;;;;;;4954734;29;20387;-81
2023/12/23 10:23:35;;;;;;;1.42;0.30;;;;;;;;;;4937615;29;20055;-81
2023/12/23 10:26:05;;;;;;;1.20;0.40;;;;;;;;;;4954693;29;20077;-81
2023/12/23 10:28:37;;;;;;;0.35;0.20;;;;;;;;;;4937982;29;20063;-81
2023/12/23 10:31:13;;;;;;;1.90;0.32;;;;;;;;;;4956932;28;20051;-81
2023/12/23 10:33:51;;;;;;;0.50;0.10;;;;;;;;;;4957464;29;20505;-81
2023/12/23 10:36:24;;;;;;;0.80;0.20;;;;;;;;;;4958762;29;20047;-81
2023/12/23 10:39:02;;;;;;;2.15;1.20;;;;;;;;;;4959088;29;20054;-80
2023/12/23 10:41:45;;;;;;;0.47;0.20;;;;;;;;;;4958574;29;20047;-80
2023/12/23 10:44:17;;;;;;;1.77;0.20;;;;;;;;;;4957120;29;20051;-80
2023/12/23 10:46:50;;;;;;;5.93;0.30;;;;;;;;;;4921470;29;20526;-79
2023/12/23 10:49:23;;;;;;;2.47;0.50;;;;;;;;;;4939308;29;20043;-81
2023/12/23 10:52:00;;;;;;;1.65;0.40;;;;;;;;;;4927322;29;20047;-80
2023/12/23 10:54:35;;;;;;;0.93;0.15;;;;;;;;;;4959074;29;20215;-80
2023/12/23 10:57:07;;;;;;;3.45;0.30;;;;;;;;;;4956881;29;20051;-79
2023/12/23 10:59:37;;;;;;;0.88;0.22;;;;;;;;;;4956846;29;20047;-80
2023/12/23 11:02:16;;;;;;;0.60;0.30;;;;;;;;;;4957673;28;20051;-78
2023/12/23 11:04:49;;;;;;;0.20;0.10;;;;;;;;;;4958230;29;20047;-81
2023/12/23 11:07:24;;;;;;;0.75;0.35;;;;;;;;;;4957683;28;20054;-81
2023/12/23 11:09:58;;;;;;;0.65;0.32;;;;;;;;;;4958199;29;20525;-80
2023/12/23 11:12:33;;;;;;;0.90;0.32;;;;;;;;;;4961556;29;20047;-80
2023/12/23 11:15:04;;;;;;;0.20;0.20;;;;;;;;;;4960486;29;20498;-80
2023/12/23 11:17:55;;;;;;;0.32;0.20;;;;;;;;;;4950306;29;20062;-80
2023/12/23 11:20:49;;;;;;;0.98;0.30;;;;;;;;;;4889853;29;20059;-80
2023/12/23 11:23:29;;;;;;;3.13;0.30;;;;;;;;;;4909205;29;20056;-80
2023/12/23 11:26:03;;;;;;;3.40;0.30;;;;;;;;;;4905382;29;20559;-79
2023/12/23 11:28:36;;;;;;;0.98;0.47;;;;;;;;;;4898976;29;20052;-79
2023/12/23 11:31:08;;;;;;;1.92;0.20;;;;;;;;;;4910600;29;20056;-80
2023/12/23 11:33:40;;;;;;;0.40;0.22;;;;;;;;;;4917602;29;20538;-81
2023/12/23 11:36:12;;;;;;;0.43;0.20;;;;;;;;;;4917039;29;20055;-82
2023/12/23 11:38:53;;;;;;;4.07;0.30;;;;;;;;;;4917314;29;20434;-83
2023/12/23 11:41:24;;;;;;;1.33;0.30;;;;;;;;;;4916376;29;20060;-81
2023/12/23 11:43:56;;;;;;;1.17;0.55;;;;;;;;;;4916693;29;20052;-81
2023/12/23 11:46:28;;;;;;;1.65;0.20;;;;;;;;;;4917421;29;20056;-81
2023/12/23 11:48:59;;;;;;;1.52;0.65;;;;;;;;;;4917440;29;20081;-81
2023/12/23 11:51:31;;;;;;;2.03;0.20;;;;;;;;;;4932339;29;20059;-83
2023/12/23 11:54:03;;;;;;;;;;;;;;;;;;4941888;29;20044;-82
2023/12/23 11:56:37;;;;;;;;;;;;;;;;;;4965178;29;19923;-81
2023/12/23 11:59:11;;;;;;;1.55;0.30;;;;;;;;;;4962927;29;20318;-81
2023/12/23 12:01:41;;;;;;;1.48;0.30;;;;;;;;;;4955925;29;20059;-80
2023/12/23 12:04:11;;;;;;;0.77;0.30;;;;;;;;;;4939841;29;20062;-80
2023/12/23 12:06:42;;;;;;;0.73;0.20;;;;;;;;;;4956308;29;20379;-79
2023/12/23 12:09:13;;;;;;;1.77;0.40;;;;;;;;;;4940462;29;20055;-79
2023/12/23 12:11:43;;;;;;;1.70;0.20;;;;;;;;;;4955351;29;20518;-81
2023/12/23 12:14:14;;;;;;;1.65;0.15;;;;;;;;;;4956288;29;20059;-80
2023/12/23 12:16:45;;;;;;;0.60;0.40;;;;;;;;;;4955917;29;20051;-83
2023/12/23 12:19:22;;;;;;;0.50;0.20;;;;;;;;;;4940050;29;20059;-80
2023/12/23 12:21:53;;;;;;;2.47;0.30;;;;;;;;;;4938809;29;20054;-81
2023/12/23 12:24:23;;;;;;;0.65;0.10;;;;;;;;;;4956169;29;20047;-80
2023/12/23 12:26:56;;;;;;;0.98;0.30;;;;;;;;;;4955796;29;20054;-79
2023/12/23 12:29:27;;;;;;;0.75;0.10;;;;;;;;;;4956199;29;20055;-80
2023/12/23 12:31:57;;;;;;;3.00;0.20;;;;;;;;;;4957072;29;20051;-80
2023/12/23 12:34:30;;;;;;;0.45;0.20;;;;;;;;;;4956971;29;20051;-79
2023/12/23 12:37:02;;;;;;;1.27;0.30;;;;;;;;;;4940487;29;20050;-80
2023/12/23 12:39:32;;;;;;;0.50;0.20;;;;;;;;;;4938199;29;20047;-80
2023/12/23 12:42:03;;;;;;;0.90;0.30;;;;;;;;;;4954920;29;20055;-81
2023/12/23 12:44:34;;;;;;;0.25;0.10;;;;;;;;;;4958203;29;20051;-79
2023/12/23 12:47:06;;;;;;;1.17;0.40;;;;;;;;;;4958061;29;20112;-81
2023/12/23 12:49:45;;;;;;;2.22;0.20;;;;;;;;;;4956446;29;20047;-80
2023/12/23 12:52:36;;;;;;;1.02;0.17;;;;;;;;;;4938644;29;20051;-80
2023/12/23 12:55:08;;;;;;;0.50;0.25;;;;;;;;;;4937972;29;20062;-80
2023/12/23 12:57:40;;;;;;;1.02;0.20;;;;;;;;;;4940005;29;20348;-79
2023/12/23 13:00:11;;;;;;;0.95;0.50;;;;;;;;;;4939535;29;20059;-78
2023/12/23 13:02:42;;;;;;;0.75;0.20;;;;;;;;;;4956283;29;20051;-80
2023/12/23 13:05:13;;;;;;;1.00;0.50;;;;;;;;;;4937127;29;20058;-80
2023/12/23 13:07:44;;;;;;;0.35;0.22;;;;;;;;;;4937110;29;20370;-81
2023/12/23 13:10:15;;;;;;;2.28;0.20;;;;;;;;;;4939449;29;20058;-79
2023/12/23 13:12:45;;;;;;;2.03;0.30;;;;;;;;;;4938461;29;20062;-79
2023/12/23 13:15:16;;;;;;;1.40;0.47;;;;;;;;;;4939114;29;20043;-78
2023/12/23 13:17:47;;;;;;;0.75;0.25;;;;;;;;;;4956059;29;20058;-80
2023/12/23 13:20:18;;;;;;;0.55;0.28;;;;;;;;;;4955692;29;20486;-85
2023/12/23 13:22:52;;;;;;;0.65;0.20;;;;;;;;;;4941201;29;20047;-82
2023/12/23 13:25:23;;;;;;;1.75;0.20;;;;;;;;;;4939608;29;20054;-82
2023/12/23 13:27:53;;;;;;;0.43;0.30;;;;;;;;;;4957959;29;20058;-80
2023/12/23 13:30:26;;;;;;;0.68;0.30;;;;;;;;;;4939467;29;20063;-81
2023/12/23 13:32:57;;;;;;;0.32;0.20;;;;;;;;;;4957255;29;20050;-82
2023/12/23 13:35:27;;;;;;;0.45;0.30;;;;;;;;;;4938088;29;20047;-79
2023/12/23 13:37:58;;;;;;;0.65;0.20;;;;;;;;;;4956355;29;20046;-82
2023/12/23 13:40:28;;;;;;;1.55;0.20;;;;;;;;;;4939035;29;20055;-84
2023/12/23 13:42:58;;;;;;;2.58;0.30;;;;;;;;;;4939493;29;20054;-83
2023/12/23 13:45:31;;;;;;;0.75;0.50;;;;;;;;;;4957868;29;20062;-80
2023/12/23 13:48:01;;;;;;;0.75;0.32;;;;;;;;;;4939632;29;20052;-84
2023/12/23 13:50:32;;;;;;;0.98;0.30;;;;;;;;;;4938745;29;20055;-81
2023/12/23 13:53:02;;;;;;;2.22;0.20;;;;;;;;;;4938869;29;20450;-82
2023/12/23 13:55:37;;;;;;;1.85;0.65;;;;;;;;;;4955091;28;20060;-82
2023/12/23 13:58:10;;;;;;;1.33;0.30;;;;;;;;;;4957998;29;20051;-83
2023/12/23 14:00:40;;;;;;;0.10;0.10;;;;;;;;;;4922392;29;20062;-81
2023/12/23 14:03:10;;;;;;;0.60;0.30;;;;;;;;;;4955338;29;20048;-82
2023/12/23 14:05:46;;;;;;;2.03;0.40;;;;;;;;;;4954748;28;20185;-81
2023/12/23 14:08:19;;;;;;;0.52;0.30;;;;;;;;;;4954929;29;20402;-79
2023/12/23 14:10:50;;;;;;;2.45;0.25;;;;;;;;;;4956711;29;20065;-81
2023/12/23 14:13:20;;;;;;;1.38;0.40;;;;;;;;;;4953562;29;20051;-81
2023/12/23 14:15:51;;;;;;;0.93;0.30;;;;;;;;;;4955488;29;20044;-81
2023/12/23 14:18:21;;;;;;;0.60;0.30;;;;;;;;;;4936922;29;20047;-80
2023/12/23 14:20:51;;;;;;;0.30;0.20;;;;;;;;;;4954661;29;20074;-81
2023/12/23 14:23:21;;;;;;;0.68;0.30;;;;;;;;;;4937054;29;20051;-80
2023/12/23 14:25:52;;;;;;;0.40;0.20;;;;;;;;;;4953463;29;20051;-80
2023/12/23 14:28:23;;;;;;;1.67;0.20;;;;;;;;;;4954100;29;20047;-79
2023/12/23 14:30:54;;;;;;;0.22;0.20;;;;;;;;;;4937989;29;20070;-82
2023/12/23 14:33:26;;;;;;;0.75;0.40;;;;;;;;;;4953277;29;20044;-79
2023/12/23 14:35:56;;;;;;;0.75;0.30;;;;;;;;;;4954158;29;20047;-80
2023/12/23 14:38:27;;;;;;;1.48;0.30;;;;;;;;;;4955103;29;20047;-79
2023/12/23 14:40:58;;;;;;;0.60;0.30;;;;;;;;;;4954279;29;20047;-79
2023/12/23 14:43:28;;;;;;;0.70;0.30;;;;;;;;;;4954295;29;20047;-79
2023/12/23 14:45:59;;;;;;;0.95;0.30;;;;;;;;;;4957097;29;20058;-81
2023/12/23 14:48:29;;;;;;;2.15;0.30;;;;;;;;;;4955016;29;20048;-79
2023/12/23 14:50:59;;;;;;;1.08;0.60;;;;;;;;;;4937678;29;20549;-79
2023/12/23 14:53:29;;;;;;;1.15;0.30;;;;;;;;;;4954913;29;20048;-80
2023/12/23 14:55:59;;;;;;;0.65;0.30;;;;;;;;;;4956496;29;20123;-81
2023/12/23 14:58:30;;;;;;;1.23;0.35;;;;;;;;;;4961052;29;20051;-80
2023/12/23 15:00:59;;;;;;;0.40;0.30;;;;;;;;;;4960076;29;20047;-80
2023/12/23 15:03:30;;;;;;;2.20;0.60;;;;;;;;;;4954303;29;20430;-82
2023/12/23 15:06:04;;;;;;;5.80;0.30;;;;;;;;;;4937160;29;20055;-84
2023/12/23 15:08:35;;;;;;;1.80;0.30;;;;;;;;;;4955230;29;20055;-80